Time;durP1;ratioP1;P1;durP2;ratioP2;P2;SDS_P1;SDS_P2;PMS_P1;PMS_P2;Temp;Humidity;BMP_temperature;BMP_pressure;BME280_temperature;BME280_humidity;BME280_pressure;Samples;Min_cycle;Max_cycle;Signal;HPM_P1;HPM_P2
2022/01/15 00:01:30;;;;;;;5.78;3.47;;;7.40;97.00;;;;;;9176654;19;20010;-73
2022/01/15 00:04:38;;;;;;;4.78;3.53;;;7.40;97.00;;;;;;9176977;19;20014;-74
2022/01/15 00:07:47;;;;;;;4.75;3.70;;;7.40;97.00;;;;;;9178970;19;20026;-74
2022/01/15 00:10:59;;;;;;;7.10;3.78;;;7.40;97.00;;;;;;9180065;19;20115;-74
2022/01/15 00:14:13;;;;;;;5.20;3.30;;;7.40;97.00;;;;;;9188310;19;20476;-74
2022/01/15 00:17:31;;;;;;;5.65;3.50;;;7.40;97.00;;;;;;9184461;19;20039;-73
2022/01/15 00:20:39;;;;;;;3.85;3.30;;;7.40;97.00;;;;;;9187998;19;20015;-73
2022/01/15 00:23:44;;;;;;;5.28;3.50;;;7.40;97.00;;;;;;9184730;19;20019;-74
2022/01/15 00:26:49;;;;;;;4.68;3.42;;;7.40;97.00;;;;;;9186765;19;20018;-73
2022/01/15 00:29:54;;;;;;;3.75;3.25;;;7.40;97.00;;;;;;9186414;19;20472;-73
2022/01/15 00:33:00;;;;;;;5.07;3.95;;;7.30;97.00;;;;;;9184622;19;20477;-73
2022/01/15 00:36:10;;;;;;;5.32;3.60;;;7.30;97.00;;;;;;9188510;19;20408;-73
2022/01/15 00:39:16;;;;;;;4.85;3.83;;;7.30;97.00;;;;;;9184409;19;20460;-73
2022/01/15 00:42:22;;;;;;;4.47;3.70;;;7.30;97.00;;;;;;9183127;19;20495;-72
2022/01/15 00:45:32;;;;;;;6.03;3.83;;;7.30;97.00;;;;;;9184500;19;20362;-73
2022/01/15 00:48:38;;;;;;;4.68;3.60;;;7.30;97.00;;;;;;9186229;19;20483;-73
2022/01/15 00:51:48;;;;;;;5.07;3.80;;;7.30;97.00;;;;;;9187169;19;20021;-73
2022/01/15 00:54:53;;;;;;;5.40;3.50;;;7.30;97.00;;;;;;9183860;19;20033;-73
2022/01/15 00:57:59;;;;;;;5.35;3.60;;;7.30;97.00;;;;;;9188787;19;20364;-73
2022/01/15 01:01:20;;;;;;;4.68;3.55;;;7.30;97.00;;;;;;9182775;19;20121;-73
2022/01/15 01:04:26;;;;;;;6.60;4.05;;;7.30;97.00;;;;;;9182789;19;20022;-73
2022/01/15 01:07:34;;;;;;;5.47;3.97;;;7.30;97.10;;;;;;9184066;19;20029;-73
2022/01/15 01:10:53;;;;;;;5.40;3.75;;;7.30;97.00;;;;;;9184885;19;20033;-74
2022/01/15 01:20:49;;;;;;;6.07;3.90;;;7.30;97.00;;;;;;9186797;19;20526;-73
2022/01/15 01:27:23;;;;;;;5.60;3.85;;;7.30;97.00;;;;;;9184810;19;20014;-74
2022/01/15 01:30:34;;;;;;;5.15;3.88;;;7.30;97.00;;;;;;9185214;19;20018;-73
2022/01/15 01:33:52;;;;;;;5.93;4.07;;;7.30;97.00;;;;;;9180890;19;20634;-73
2022/01/15 01:37:04;;;;;;;4.75;4.05;;;7.20;97.00;;;;;;9181822;19;20014;-73
2022/01/15 01:43:48;;;;;;;5.50;4.05;;;7.20;97.00;;;;;;9183583;19;20342;-73
2022/01/15 01:47:02;;;;;;;6.22;4.88;;;7.20;97.00;;;;;;9181619;19;20007;-73
2022/01/15 01:50:11;;;;;;;6.10;4.40;;;7.20;97.00;;;;;;9181812;19;20022;-73
2022/01/15 01:53:17;;;;;;;6.35;4.85;;;7.20;97.00;;;;;;9178624;19;20365;-73
2022/01/15 01:56:27;;;;;;;6.93;4.60;;;7.20;97.00;;;;;;9184362;19;20039;-74
2022/01/15 01:59:32;;;;;;;5.63;4.22;;;7.20;97.00;;;;;;9186731;19;20018;-73
2022/01/15 02:02:38;;;;;;;6.60;4.82;;;7.20;97.00;;;;;;9180337;19;20019;-73
2022/01/15 02:05:43;;;;;;;7.13;5.32;;;7.20;97.00;;;;;;9180998;19;20049;-73
2022/01/15 02:08:49;;;;;;;6.25;4.45;;;7.20;97.00;;;;;;9182532;19;20023;-73
2022/01/15 02:11:56;;;;;;;7.55;4.93;;;7.20;97.00;;;;;;9184930;19;20026;-73
2022/01/15 02:15:07;;;;;;;7.22;4.68;;;7.20;97.00;;;;;;9183336;19;20015;-73
2022/01/15 02:18:12;;;;;;;5.93;4.57;;;7.20;97.00;;;;;;9183943;19;20010;-73
2022/01/15 02:24:37;;;;;;;5.63;4.75;;;7.10;97.00;;;;;;9179848;19;20019;-73
2022/01/15 02:27:46;;;;;;;5.30;4.22;;;7.10;97.00;;;;;;9180160;19;20101;-73
2022/01/15 02:30:54;;;;;;;6.03;4.20;;;7.10;97.00;;;;;;9184051;19;20026;-73
2022/01/15 02:34:01;;;;;;;5.63;4.20;;;7.10;97.00;;;;;;9182588;19;20452;-73
2022/01/15 02:37:08;;;;;;;4.95;3.85;;;7.10;97.00;;;;;;9183836;19;20023;-73
2022/01/15 02:40:14;;;;;;;4.55;3.90;;;7.10;97.00;;;;;;9179411;19;20055;-73
2022/01/15 02:43:27;;;;;;;4.82;3.92;;;7.10;97.00;;;;;;9181833;19;20014;-73
2022/01/15 02:48:00;;;;;;;4.60;4.00;;;7.10;97.00;;;;;;9182724;19;20086;-73
2022/01/15 02:50:03;;;;;;;5.45;3.95;;;7.10;97.00;;;;;;9182711;19;20475;-73
2022/01/15 02:53:12;;;;;;;5.85;4.10;;;7.10;97.00;;;;;;9180773;19;20753;-73
2022/01/15 02:56:17;;;;;;;5.88;4.45;;;7.10;97.00;;;;;;9181975;19;20346;-73
2022/01/15 02:59:25;;;;;;;4.95;4.18;;;7.10;97.00;;;;;;9183077;19;20010;-73
2022/01/15 03:02:33;;;;;;;5.60;4.25;;;7.10;97.00;;;;;;9178783;19;20011;-73
2022/01/15 03:05:38;;;;;;;5.88;4.50;;;7.10;97.00;;;;;;9179417;19;20507;-73
2022/01/15 03:08:48;;;;;;;5.90;4.07;;;7.10;97.00;;;;;;9179696;19;20034;-73
2022/01/15 03:11:59;;;;;;;4.45;3.83;;;7.10;97.00;;;;;;9182280;19;20014;-73
2022/01/15 03:15:05;;;;;;;4.68;4.03;;;7.10;97.00;;;;;;9182549;19;20026;-73
2022/01/15 03:18:10;;;;;;;5.18;4.03;;;7.10;97.00;;;;;;9184207;19;20019;-74
2022/01/15 03:21:16;;;;;;;6.20;4.28;;;7.10;97.00;;;;;;9181568;19;20010;-73
2022/01/15 03:24:23;;;;;;;5.10;4.10;;;7.10;97.00;;;;;;9176347;19;20481;-73
2022/01/15 03:27:30;;;;;;;5.03;3.88;;;7.10;97.00;;;;;;9179416;19;20025;-74
2022/01/15 03:30:38;;;;;;;4.55;3.47;;;7.10;97.00;;;;;;9179293;19;20068;-73
2022/01/15 03:33:43;;;;;;;4.47;3.75;;;7.00;97.00;;;;;;9178673;19;20129;-74
2022/01/15 03:36:48;;;;;;;5.00;3.95;;;7.00;97.00;;;;;;9180136;19;20014;-73
2022/01/15 03:39:57;;;;;;;4.88;4.05;;;7.00;97.00;;;;;;9179636;19;20053;-74
2022/01/15 03:43:02;;;;;;;4.57;3.70;;;7.00;97.00;;;;;;9180580;19;20970;-74
2022/01/15 03:46:12;;;;;;;5.35;3.85;;;7.00;97.00;;;;;;9175229;19;20029;-74
2022/01/15 03:49:17;;;;;;;4.47;3.78;;;7.00;97.00;;;;;;9177837;19;20014;-74
2022/01/15 03:52:22;;;;;;;5.22;3.67;;;7.00;97.00;;;;;;9177802;19;20011;-73
2022/01/15 03:55:30;;;;;;;4.95;3.97;;;7.00;97.00;;;;;;9174915;19;20015;-74
2022/01/15 03:58:35;;;;;;;4.90;3.67;;;7.00;97.00;;;;;;9179603;19;20492;-74
2022/01/15 04:01:40;;;;;;;4.22;3.35;;;7.00;97.00;;;;;;9179407;19;20015;-73
2022/01/15 04:04:46;;;;;;;4.65;3.50;;;7.00;97.00;;;;;;9176741;19;20018;-72
2022/01/15 04:07:52;;;;;;;4.18;3.53;;;7.00;97.00;;;;;;9176416;19;20018;-74
2022/01/15 04:11:00;;;;;;;5.22;3.45;;;7.00;97.00;;;;;;9180984;19;20031;-74
2022/01/15 04:14:06;;;;;;;3.95;3.33;;;7.00;97.00;;;;;;9177715;19;20025;-73
2022/01/15 04:17:12;;;;;;;4.25;3.40;;;7.00;97.00;;;;;;9179430;19;20346;-73
2022/01/15 04:20:20;;;;;;;3.85;3.50;;;7.00;97.00;;;;;;9177995;19;20377;-73
2022/01/15 04:23:25;;;;;;;3.78;3.17;;;7.00;97.00;;;;;;9180189;19;20373;-74
2022/01/15 04:26:36;;;;;;;3.50;3.20;;;7.00;97.00;;;;;;9176554;19;20835;-73
2022/01/15 04:29:43;;;;;;;4.05;3.25;;;7.00;97.00;;;;;;9174726;19;20022;-73
2022/01/15 04:32:49;;;;;;;4.18;3.33;;;7.00;97.00;;;;;;9177386;19;20387;-73
2022/01/15 04:35:55;;;;;;;3.92;3.35;;;7.00;97.00;;;;;;9177659;19;20019;-73
2022/01/15 04:39:00;;;;;;;4.78;3.53;;;7.00;97.00;;;;;;9176760;19;20025;-74
2022/01/15 04:42:08;;;;;;;3.47;3.13;;;7.00;97.00;;;;;;9178136;19;20038;-73
2022/01/15 04:45:16;;;;;;;3.60;2.97;;;7.00;97.00;;;;;;9178204;19;20062;-73
2022/01/15 04:48:24;;;;;;;3.38;2.80;;;7.00;97.00;;;;;;9178466;19;20019;-73
2022/01/15 04:51:30;;;;;;;5.20;3.50;;;6.90;97.00;;;;;;9175005;19;20045;-74
2022/01/15 04:54:36;;;;;;;3.40;2.88;;;6.90;97.00;;;;;;9173363;19;20025;-73
2022/01/15 04:57:45;;;;;;;4.20;3.30;;;6.90;97.00;;;;;;9177068;19;20011;-73
2022/01/15 05:00:50;;;;;;;4.00;3.35;;;6.90;97.00;;;;;;9184492;19;20512;-73
2022/01/15 05:03:55;;;;;;;3.42;3.10;;;6.90;97.20;;;;;;9185806;19;20014;-73
2022/01/15 05:07:01;;;;;;;4.40;3.53;;;6.90;97.00;;;;;;9185716;19;20030;-73
2022/01/15 05:10:07;;;;;;;5.15;3.85;;;6.90;97.00;;;;;;9182691;19;20023;-73
2022/01/15 05:13:20;;;;;;;4.50;3.55;;;7.00;97.00;;;;;;9181455;19;20101;-73
2022/01/15 05:16:26;;;;;;;4.15;3.22;;;6.90;97.00;;;;;;9182484;19;20022;-74
2022/01/15 05:19:31;;;;;;;3.30;3.00;;;6.90;97.00;;;;;;9186190;19;20044;-74
2022/01/15 05:22:36;;;;;;;4.60;3.47;;;6.90;97.00;;;;;;9185627;19;20110;-74
2022/01/15 05:25:41;;;;;;;4.00;3.53;;;6.90;97.00;;;;;;9185289;19;20014;-74
2022/01/15 05:28:49;;;;;;;4.18;3.30;;;6.90;97.00;;;;;;9187028;19;20017;-75
2022/01/15 05:31:54;;;;;;;3.72;3.20;;;6.90;97.00;;;;;;9185825;19;20039;-74
2022/01/15 05:35:00;;;;;;;3.28;2.90;;;6.90;97.00;;;;;;9181835;19;20015;-72
2022/01/15 05:38:05;;;;;;;3.92;3.10;;;6.90;97.00;;;;;;9182219;19;20010;-71
2022/01/15 05:41:11;;;;;;;3.97;2.63;;;6.90;97.00;;;;;;9182588;19;20019;-72
2022/01/15 05:44:19;;;;;;;3.17;2.85;;;6.90;97.00;;;;;;9183636;19;20014;-72
2022/01/15 05:47:24;;;;;;;3.13;2.47;;;6.90;97.00;;;;;;9183828;19;20018;-72
2022/01/15 05:50:29;;;;;;;2.75;2.42;;;6.90;97.00;;;;;;9185109;19;20036;-72
2022/01/15 05:53:34;;;;;;;2.92;2.40;;;6.90;97.00;;;;;;9180783;19;20021;-71
2022/01/15 05:56:40;;;;;;;3.75;2.45;;;6.90;97.00;;;;;;9181112;19;20023;-73
2022/01/15 05:59:51;;;;;;;2.55;2.30;;;6.90;97.00;;;;;;9181785;19;20468;-74
2022/01/15 06:02:56;;;;;;;3.58;2.50;;;6.90;97.00;;;;;;9185878;19;20504;-72
2022/01/15 06:06:02;;;;;;;2.42;2.20;;;6.90;97.00;;;;;;9184027;19;20044;-72
2022/01/15 06:09:07;;;;;;;2.42;2.13;;;6.90;97.00;;;;;;9181429;19;20398;-73
2022/01/15 06:12:13;;;;;;;2.08;1.88;;;6.90;97.00;;;;;;9184213;19;20073;-73
2022/01/15 06:15:22;;;;;;;2.08;1.67;;;6.80;96.90;;;;;;9182016;19;20078;-73
2022/01/15 06:18:27;;;;;;;2.85;2.10;;;6.90;97.00;;;;;;9181463;19;20475;-74
2022/01/15 06:21:35;;;;;;;2.58;2.10;;;6.90;97.00;;;;;;9179874;19;20048;-73
2022/01/15 06:24:41;;;;;;;2.08;1.67;;;6.80;96.90;;;;;;9178050;19;20015;-73
2022/01/15 06:27:46;;;;;;;2.90;1.95;;;6.90;96.90;;;;;;9180275;19;20010;-73
2022/01/15 06:30:55;;;;;;;1.65;1.55;;;6.80;96.90;;;;;;9179958;19;21644;-73
2022/01/15 06:34:00;;;;;;;1.95;1.60;;;6.80;96.90;;;;;;9180845;19;20053;-74
2022/01/15 06:37:07;;;;;;;1.55;1.30;;;6.80;96.90;;;;;;9181988;19;20019;-74
2022/01/15 06:40:13;;;;;;;1.17;1.00;;;6.80;96.90;;;;;;9179518;19;20048;-73
2022/01/15 06:43:18;;;;;;;1.08;0.90;;;6.80;96.90;;;;;;9179766;19;20011;-73
2022/01/15 06:46:26;;;;;;;1.15;0.80;;;6.80;96.90;;;;;;9181395;19;20050;-73
2022/01/15 06:49:31;;;;;;;0.75;0.60;;;6.80;96.90;;;;;;9181092;19;20476;-73
2022/01/15 06:52:41;;;;;;;0.80;0.80;;;6.80;96.90;;;;;;9181960;19;20097;-73
2022/01/15 06:55:49;;;;;;;1.00;0.90;;;6.70;96.90;;;;;;9176884;19;20506;-73
2022/01/15 06:58:54;;;;;;;1.02;0.93;;;6.80;96.90;;;;;;9182442;19;20022;-73
2022/01/15 07:02:02;;;;;;;1.20;1.00;;;6.70;96.90;;;;;;9179716;19;20586;-74
2022/01/15 07:05:08;;;;;;;1.08;0.98;;;6.70;97.10;;;;;;9179000;19;20030;-73
2022/01/15 07:08:13;;;;;;;0.90;0.73;;;6.70;96.90;;;;;;9179108;19;20022;-74
2022/01/15 07:11:19;;;;;;;1.00;0.90;;;6.70;96.90;;;;;;9181804;19;20019;-73
2022/01/15 07:14:24;;;;;;;1.17;1.08;;;6.70;96.90;;;;;;9182230;19;20476;-74
2022/01/15 07:17:32;;;;;;;1.15;1.05;;;6.70;96.90;;;;;;9183265;19;20027;-73
2022/01/15 07:20:37;;;;;;;1.88;0.82;;;6.70;96.90;;;;;;9181386;19;20480;-73
2022/01/15 07:23:42;;;;;;;1.20;1.10;;;6.60;96.80;;;;;;9180579;19;20023;-73
2022/01/15 07:26:47;;;;;;;1.10;1.00;;;6.70;96.90;;;;;;9181919;19;20029;-73
2022/01/15 07:29:52;;;;;;;1.40;1.30;;;6.60;96.90;;;;;;9180312;19;20010;-73
2022/01/15 07:33:00;;;;;;;1.33;1.20;;;6.60;96.80;;;;;;9179884;19;20014;-73
2022/01/15 07:36:05;;;;;;;1.73;1.40;;;6.60;96.80;;;;;;9179655;19;20336;-73
2022/01/15 07:39:16;;;;;;;2.20;1.63;;;6.60;96.90;;;;;;9180986;19;20007;-73
2022/01/15 07:42:21;;;;;;;1.63;1.52;;;6.60;96.90;;;;;;9179366;19;20019;-74
2022/01/15 07:45:26;;;;;;;1.98;1.77;;;6.50;96.80;;;;;;9178374;19;20018;-73
2022/01/15 07:48:34;;;;;;;2.70;1.90;;;6.50;96.80;;;;;;9179048;19;20014;-74
2022/01/15 07:51:39;;;;;;;1.90;1.67;;;6.50;96.80;;;;;;9179418;19;20015;-75
2022/01/15 07:54:44;;;;;;;1.80;1.65;;;6.50;96.80;;;;;;9175137;19;20019;-73
2022/01/15 07:57:49;;;;;;;1.70;1.60;;;6.50;96.80;;;;;;9181680;19;20022;-73
2022/01/15 08:00:54;;;;;;;1.80;1.70;;;6.50;96.90;;;;;;9180260;19;20077;-73
2022/01/15 08:04:04;;;;;;;2.03;1.75;;;6.40;96.80;;;;;;9178599;19;20026;-74
2022/01/15 08:07:10;;;;;;;1.98;1.73;;;6.50;96.90;;;;;;9178139;19;20029;-73
2022/01/15 08:10:15;;;;;;;1.90;1.80;;;6.40;96.80;;;;;;9177737;19;20021;-73
2022/01/15 08:13:21;;;;;;;2.35;2.00;;;6.40;96.90;;;;;;9177863;19;20035;-74
2022/01/15 08:16:26;;;;;;;1.90;1.80;;;6.40;96.90;;;;;;9176388;19;20022;-73
2022/01/15 08:19:33;;;;;;;2.90;2.50;;;6.40;96.80;;;;;;9179918;19;20378;-74
2022/01/15 08:22:40;;;;;;;2.42;2.00;;;6.40;96.80;;;;;;9178701;19;20472;-72
2022/01/15 08:25:45;;;;;;;2.13;1.92;;;6.40;96.80;;;;;;9178912;19;20026;-72
2022/01/15 08:28:50;;;;;;;2.00;1.73;;;6.30;96.80;;;;;;9176305;19;20026;-72
2022/01/15 08:31:56;;;;;;;2.45;2.03;;;6.40;96.90;;;;;;9175702;19;20011;-72
2022/01/15 08:35:05;;;;;;;3.03;1.83;;;6.30;96.80;;;;;;9186038;19;20511;-73
2022/01/15 08:38:11;;;;;;;2.65;2.38;;;6.30;96.80;;;;;;9187339;19;20484;-73
2022/01/15 08:41:16;;;;;;;2.20;2.00;;;6.30;96.80;;;;;;9187309;19;20018;-73
2022/01/15 08:44:24;;;;;;;2.53;2.33;;;6.30;96.90;;;;;;9191428;19;20479;-72
2022/01/15 08:47:29;;;;;;;2.67;2.20;;;6.30;96.80;;;;;;9186951;19;20472;-74
2022/01/15 08:50:40;;;;;;;2.65;2.40;;;6.30;96.90;;;;;;9185317;19;20021;-73
2022/01/15 08:53:45;;;;;;;3.08;2.40;;;6.30;96.90;;;;;;9184162;19;20019;-73
2022/01/15 08:56:50;;;;;;;2.80;2.35;;;6.30;96.90;;;;;;9184261;19;20034;-73
2022/01/15 08:59:55;;;;;;;2.75;2.50;;;6.30;96.90;;;;;;9187103;19;20018;-73
2022/01/15 09:03:01;;;;;;;3.25;2.58;;;6.30;96.90;;;;;;9187904;19;20021;-73
2022/01/15 09:06:09;;;;;;;4.32;2.58;;;6.30;96.90;;;;;;9186381;19;20015;-73
2022/01/15 09:09:14;;;;;;;3.88;2.72;;;6.30;96.80;;;;;;9184053;19;20011;-73
2022/01/15 09:12:22;;;;;;;3.25;2.60;;;6.30;96.80;;;;;;9183268;19;20015;-73
2022/01/15 09:15:27;;;;;;;2.97;2.63;;;6.20;96.80;;;;;;9182547;19;20019;-74
2022/01/15 09:18:34;;;;;;;3.10;2.80;;;6.20;96.90;;;;;;9185041;19;20038;-74
2022/01/15 09:21:44;;;;;;;3.85;3.03;;;6.20;96.90;;;;;;9184053;19;20029;-73
2022/01/15 09:24:50;;;;;;;3.35;2.92;;;6.20;96.90;;;;;;9184807;19;20018;-75
2022/01/15 09:31:18;;;;;;;3.15;2.70;;;6.20;96.90;;;;;;9188361;19;20022;-74
2022/01/15 09:34:24;;;;;;;3.70;3.08;;;6.20;96.90;;;;;;9185902;19;20022;-73
2022/01/15 09:37:37;;;;;;;5.30;2.80;;;6.20;96.90;;;;;;9182515;19;20007;-74
2022/01/15 09:40:42;;;;;;;3.30;2.42;;;6.20;96.90;;;;;;9181888;19;20010;-73
2022/01/15 09:43:48;;;;;;;3.95;2.90;;;6.20;96.90;;;;;;9180851;19;20019;-73
2022/01/15 09:46:53;;;;;;;4.22;3.00;;;6.20;96.90;;;;;;9180404;19;20014;-73
2022/01/15 09:49:59;;;;;;;3.72;3.40;;;6.20;96.90;;;;;;9181549;19;20026;-73
2022/01/15 09:53:07;;;;;;;3.72;2.75;;;6.20;96.90;;;;;;9177621;19;20487;-73
2022/01/15 09:56:12;;;;;;;4.22;3.00;;;6.20;96.90;;;;;;9181506;19;20019;-73
2022/01/15 09:59:18;;;;;;;3.60;3.08;;;6.20;96.90;;;;;;9180026;19;20014;-74
2022/01/15 10:02:23;;;;;;;3.50;2.72;;;6.20;96.90;;;;;;9179199;19;20015;-74
2022/01/15 10:05:28;;;;;;;3.97;2.90;;;6.20;96.90;;;;;;9179027;19;20015;-73
2022/01/15 10:08:37;;;;;;;3.25;2.83;;;6.20;96.90;;;;;;9179225;19;20491;-75
2022/01/15 10:11:47;;;;;;;3.47;2.70;;;6.20;96.90;;;;;;9179655;19;20349;-73
2022/01/15 10:14:54;;;;;;;3.55;2.70;;;6.20;96.90;;;;;;9186377;19;20002;-73
2022/01/15 10:17:59;;;;;;;3.95;3.00;;;6.20;96.90;;;;;;9179381;19;20014;-73
2022/01/15 10:21:13;;;;;;;3.97;3.00;;;6.20;96.90;;;;;;9182472;19;20029;-73
2022/01/15 10:24:30;;;;;;;5.10;3.13;;;6.20;96.80;;;;;;9182402;19;20010;-73
2022/01/15 10:27:40;;;;;;;4.03;3.25;;;6.20;96.90;;;;;;9184977;19;20014;-74
2022/01/15 10:30:47;;;;;;;4.25;3.00;;;6.20;96.90;;;;;;9183430;19;20053;-74
2022/01/15 10:33:54;;;;;;;4.22;3.20;;;6.20;96.90;;;;;;9182833;19;20460;-74
2022/01/15 10:37:08;;;;;;;4.65;3.10;;;6.20;96.90;;;;;;9182118;19;20392;-74
2022/01/15 10:40:16;;;;;;;3.85;3.08;;;6.20;96.90;;;;;;9183788;19;20018;-73
2022/01/15 10:43:22;;;;;;;4.38;3.00;;;6.20;96.90;;;;;;9180558;19;20010;-74
2022/01/15 10:46:42;;;;;;;3.92;3.10;;;6.20;97.20;;;;;;9180825;19;20025;-74
2022/01/15 10:49:52;;;;;;;;;;;6.20;96.90;;;;;;9181485;19;20117;-73
2022/01/15 10:53:00;;;;;;;5.07;3.25;;;6.20;96.90;;;;;;9179840;19;19919;-74
2022/01/15 10:56:09;;;;;;;4.18;3.05;;;6.20;96.90;;;;;;9180220;19;20074;-73
2022/01/15 10:59:18;;;;;;;4.07;3.40;;;6.20;96.90;;;;;;9183567;19;20049;-74
2022/01/15 11:02:23;;;;;;;4.30;3.15;;;6.20;96.90;;;;;;9181139;19;20010;-74
2022/01/15 11:05:31;;;;;;;4.13;3.10;;;6.20;96.90;;;;;;9181609;19;20041;-74
2022/01/15 11:08:38;;;;;;;4.47;3.38;;;6.20;97.20;;;;;;9179514;19;20173;-75
2022/01/15 11:12:00;;;;;;;4.80;3.50;;;6.20;96.90;;;;;;9181139;19;20480;-73
2022/01/15 11:15:06;;;;;;;4.18;3.17;;;6.20;96.90;;;;;;9180822;19;20479;-74
2022/01/15 11:18:16;;;;;;;5.05;3.40;;;6.20;96.90;;;;;;9178777;19;20092;-73
2022/01/15 11:21:24;;;;;;;3.17;2.88;;;6.20;96.90;;;;;;9182002;19;20023;-74
2022/01/15 11:24:29;;;;;;;3.88;3.05;;;6.20;96.90;;;;;;9182359;19;20473;-73
2022/01/15 11:27:38;;;;;;;3.95;3.00;;;6.20;96.90;;;;;;9181123;19;20021;-74
2022/01/15 11:30:46;;;;;;;3.38;2.88;;;6.20;96.90;;;;;;9181844;19;20758;-74
2022/01/15 11:33:55;;;;;;;2.90;2.58;;;6.20;96.90;;;;;;9178204;19;20021;-73
2022/01/15 11:37:00;;;;;;;3.28;2.70;;;6.20;96.90;;;;;;9180209;19;20011;-73
2022/01/15 11:40:43;;;;;;;6.38;2.95;;;6.20;96.90;;;;;;9180464;19;20022;-75
2022/01/15 11:43:48;;;;;;;5.30;2.78;;;6.30;97.00;;;;;;9179549;19;20007;-73
2022/01/15 11:46:54;;;;;;;5.45;2.55;;;6.20;96.90;;;;;;9179695;19;20019;-74
2022/01/15 11:50:00;;;;;;;2.95;2.42;;;6.20;96.90;;;;;;9181486;19;20017;-73
2022/01/15 11:53:05;;;;;;;2.53;2.28;;;6.30;96.90;;;;;;9178501;19;20881;-74
2022/01/15 11:56:24;;;;;;;3.20;2.45;;;6.30;96.90;;;;;;9182294;19;20023;-74
2022/01/15 11:59:48;;;;;;;2.97;2.38;;;6.30;96.90;;;;;;9179697;19;20017;-74
2022/01/15 12:03:12;;;;;;;2.78;2.33;;;6.30;96.90;;;;;;9179320;19;20014;-73
2022/01/15 12:06:17;;;;;;;2.38;2.05;;;6.30;96.90;;;;;;9178355;19;20357;-74
2022/01/15 12:09:33;;;;;;;2.78;2.30;;;6.30;96.90;;;;;;9176271;19;20021;-74
2022/01/15 12:12:52;;;;;;;3.25;2.25;;;6.30;96.90;;;;;;9182108;19;20496;-74
2022/01/15 12:16:39;;;;;;;3.88;2.50;;;6.30;96.90;;;;;;9178151;19;20475;-74
2022/01/15 12:19:45;;;;;;;2.42;1.95;;;6.40;96.90;;;;;;9179153;19;20911;-74
2022/01/15 12:22:52;;;;;;;2.80;2.03;;;6.40;97.00;;;;;;9180638;19;20015;-74
2022/01/15 12:25:58;;;;;;;2.40;2.20;;;6.40;96.90;;;;;;9180862;19;20044;-74
2022/01/15 12:29:05;;;;;;;2.78;2.40;;;6.40;96.90;;;;;;9180637;19;20034;-73
2022/01/15 12:32:11;;;;;;;2.78;2.15;;;6.40;96.90;;;;;;9180263;19;20022;-74
2022/01/15 12:35:21;;;;;;;2.40;2.00;;;6.40;96.90;;;;;;9176686;19;20088;-74
2022/01/15 12:38:28;;;;;;;2.47;1.98;;;6.40;96.90;;;;;;9175907;19;20021;-76
2022/01/15 12:41:35;;;;;;;2.35;1.92;;;6.40;96.90;;;;;;9177045;19;20129;-74
2022/01/15 12:44:53;;;;;;;2.90;2.20;;;6.40;96.90;;;;;;9178090;19;20015;-74
2022/01/15 12:48:02;;;;;;;2.13;1.92;;;6.40;96.90;;;;;;9177197;19;20011;-74
2022/01/15 12:51:09;;;;;;;2.65;1.98;;;6.40;96.90;;;;;;9178645;19;20018;-73
2022/01/15 12:54:17;;;;;;;2.67;2.28;;;6.50;96.90;;;;;;9175223;19;20018;-75
2022/01/15 12:57:55;;;;;;;3.13;2.05;;;6.40;96.90;;;;;;9175749;19;20021;-74
2022/01/15 13:01:03;;;;;;;2.90;2.10;;;6.50;96.90;;;;;;9176316;19;20026;-74
2022/01/15 13:04:14;;;;;;;2.15;1.95;;;6.50;96.90;;;;;;9175090;19;20015;-75
2022/01/15 13:07:19;;;;;;;2.60;2.20;;;6.50;96.90;;;;;;9177305;19;20010;-74
2022/01/15 13:10:46;;;;;;;3.00;2.38;;;6.50;96.90;;;;;;9176376;19;21357;-74
2022/01/15 13:13:55;;;;;;;2.30;2.08;;;6.50;96.90;;;;;;9175806;19;20041;-74
2022/01/15 13:17:05;;;;;;;2.70;2.45;;;6.50;96.90;;;;;;9173121;19;20019;-74
2022/01/15 13:20:27;;;;;;;2.88;2.50;;;6.50;96.80;;;;;;9179116;19;20474;-74
2022/01/15 13:23:41;;;;;;;2.72;2.50;;;6.50;97.00;;;;;;9184973;19;20029;-73
2022/01/15 13:26:48;;;;;;;3.03;2.40;;;6.50;96.80;;;;;;9188025;19;20010;-74
2022/01/15 13:29:53;;;;;;;2.70;2.50;;;6.50;96.80;;;;;;9181453;19;20044;-73
2022/01/15 13:33:06;;;;;;;2.85;2.40;;;6.50;96.80;;;;;;9184104;19;20026;-74
2022/01/15 13:36:13;;;;;;;2.97;2.58;;;6.50;96.80;;;;;;9182553;19;20022;-74
2022/01/15 13:39:20;;;;;;;2.90;2.60;;;6.50;96.80;;;;;;9182058;19;20014;-74
2022/01/15 13:42:27;;;;;;;2.67;2.42;;;6.50;96.80;;;;;;9184953;19;20014;-74
2022/01/15 13:45:37;;;;;;;2.90;2.60;;;6.50;96.80;;;;;;9185536;19;20022;-74
2022/01/15 13:48:53;;;;;;;3.53;2.85;;;6.50;96.80;;;;;;9184900;19;20021;-74
2022/01/15 13:55:25;;;;;;;3.20;2.80;;;6.50;96.80;;;;;;9178416;19;20018;-72
2022/01/15 13:58:35;;;;;;;3.00;2.42;;;6.50;96.80;;;;;;9181737;19;20094;-74
2022/01/15 14:01:54;;;;;;;2.60;2.40;;;6.40;96.80;;;;;;9181229;19;20035;-74
2022/01/15 14:05:15;;;;;;;2.55;2.35;;;6.50;96.80;;;;;;9182005;19;20112;-76
2022/01/15 14:08:20;;;;;;;3.25;2.72;;;6.40;96.70;;;;;;9184217;19;20471;-74
2022/01/15 14:11:28;;;;;;;3.42;2.75;;;6.40;96.80;;;;;;9183355;19;20021;-74
2022/01/15 14:14:35;;;;;;;3.00;2.50;;;6.40;96.80;;;;;;9185610;19;20014;-74
2022/01/15 14:17:43;;;;;;;2.53;2.33;;;6.40;96.80;;;;;;9184874;19;20659;-75
2022/01/15 14:21:16;;;;;;;2.40;2.20;;;6.40;96.80;;;;;;9182511;19;20110;-74
2022/01/15 14:24:28;;;;;;;3.10;2.80;;;6.40;96.80;;;;;;9183699;19;20026;-73
2022/01/15 14:27:33;;;;;;;2.97;2.67;;;6.40;96.80;;;;;;9182386;19;20026;-73
2022/01/15 14:30:40;;;;;;;3.28;2.97;;;6.40;96.80;;;;;;9179489;19;20017;-73
2022/01/15 14:33:50;;;;;;;3.28;2.90;;;6.40;96.80;;;;;;9182767;19;20022;-74
2022/01/15 14:36:57;;;;;;;3.08;2.67;;;6.40;96.80;;;;;;9181597;19;20049;-74
2022/01/15 14:40:02;;;;;;;4.60;2.88;;;6.40;96.80;;;;;;9180100;19;20014;-74
2022/01/15 14:43:08;;;;;;;2.83;2.45;;;6.40;97.10;;;;;;9182752;19;20492;-75
2022/01/15 14:46:13;;;;;;;2.60;2.40;;;6.40;96.80;;;;;;9182744;19;20029;-75
2022/01/15 14:49:19;;;;;;;2.95;2.65;;;6.40;96.80;;;;;;9181782;19;20014;-74
2022/01/15 14:52:29;;;;;;;3.00;2.47;;;6.40;96.70;;;;;;9180702;19;20021;-74
2022/01/15 14:55:34;;;;;;;3.05;2.60;;;6.40;96.70;;;;;;9178210;19;20019;-74
2022/01/15 14:58:39;;;;;;;3.38;2.70;;;6.40;96.70;;;;;;9181069;19;20081;-73
2022/01/15 15:01:46;;;;;;;2.88;2.50;;;6.40;96.70;;;;;;9180432;19;20029;-74
2022/01/15 15:04:54;;;;;;;3.95;2.70;;;6.30;96.70;;;;;;9183288;19;20011;-75
2022/01/15 15:08:03;;;;;;;3.30;2.85;;;6.40;96.80;;;;;;9179506;19;20011;-73
2022/01/15 15:11:10;;;;;;;3.33;2.90;;;6.30;96.70;;;;;;9178617;19;20018;-74
2022/01/15 15:14:15;;;;;;;3.17;2.67;;;6.30;96.70;;;;;;9180143;19;20078;-74
2022/01/15 15:17:20;;;;;;;3.45;2.88;;;6.30;96.70;;;;;;9180836;19;20026;-74
2022/01/15 15:20:25;;;;;;;2.72;2.40;;;6.30;96.80;;;;;;9179052;19;20156;-74
2022/01/15 15:23:33;;;;;;;3.38;3.00;;;6.30;96.70;;;;;;9183946;19;20476;-74
2022/01/15 15:26:38;;;;;;;5.22;2.83;;;6.30;96.80;;;;;;9184756;19;20015;-74
2022/01/15 15:29:43;;;;;;;3.50;3.10;;;6.30;96.80;;;;;;9179092;19;20018;-74
2022/01/15 15:32:49;;;;;;;3.47;3.17;;;6.30;96.80;;;;;;9179558;19;20026;-74
2022/01/15 15:35:53;;;;;;;3.47;3.00;;;6.30;96.70;;;;;;9179326;19;20057;-74
2022/01/15 15:39:02;;;;;;;3.92;3.05;;;6.30;96.80;;;;;;9178965;19;20342;-74
2022/01/15 15:42:09;;;;;;;3.15;2.85;;;6.30;96.70;;;;;;9176366;19;20010;-74
2022/01/15 15:45:14;;;;;;;3.30;2.83;;;6.30;96.70;;;;;;9179004;19;20022;-74
2022/01/15 15:48:19;;;;;;;3.28;2.97;;;6.30;96.70;;;;;;9178482;19;20014;-74
2022/01/15 15:51:25;;;;;;;3.55;3.20;;;6.30;96.70;;;;;;9174169;19;20834;-74
2022/01/15 15:54:37;;;;;;;3.53;3.22;;;6.30;96.70;;;;;;9173608;19;20043;-74
2022/01/15 15:57:42;;;;;;;3.40;2.97;;;6.30;96.80;;;;;;9174895;19;20052;-74
2022/01/15 16:00:50;;;;;;;3.85;3.47;;;6.30;96.80;;;;;;9173893;19;20082;-74
2022/01/15 16:03:56;;;;;;;4.35;3.45;;;6.30;96.80;;;;;;9175154;19;20690;-74
2022/01/15 16:07:05;;;;;;;4.00;3.58;;;6.20;96.70;;;;;;9174040;19;20049;-74
2022/01/15 16:10:20;;;;;;;4.10;3.40;;;6.20;96.70;;;;;;9176998;19;20899;-74
2022/01/15 16:13:25;;;;;;;4.82;3.58;;;6.20;96.70;;;;;;9178474;19;20049;-74
2022/01/15 16:16:33;;;;;;;4.00;3.60;;;6.20;96.70;;;;;;9174630;19;20357;-74
2022/01/15 16:19:39;;;;;;;4.10;3.70;;;6.20;96.70;;;;;;9173692;19;20015;-73
2022/01/15 16:22:44;;;;;;;5.53;3.75;;;6.20;96.80;;;;;;9174304;19;20022;-74
2022/01/15 16:25:58;;;;;;;6.20;4.00;;;6.20;96.80;;;;;;9176331;19;20036;-74
2022/01/15 16:29:03;;;;;;;4.53;4.07;;;6.20;96.80;;;;;;9176795;19;20755;-73
2022/01/15 16:32:11;;;;;;;4.70;3.90;;;6.20;96.80;;;;;;9174497;19;20622;-73
2022/01/15 16:35:23;;;;;;;5.05;3.95;;;6.20;96.80;;;;;;9176611;19;20021;-74
2022/01/15 16:38:37;;;;;;;5.28;4.43;;;6.20;96.80;;;;;;9171677;19;20019;-74
2022/01/15 16:41:48;;;;;;;6.07;4.63;;;6.20;96.80;;;;;;9171900;19;20026;-73
2022/01/15 16:44:53;;;;;;;5.85;4.65;;;6.20;97.00;;;;;;9174186;19;20018;-75
2022/01/15 16:48:00;;;;;;;10.88;6.50;;;6.10;96.80;;;;;;9174559;19;20033;-74
2022/01/15 16:51:05;;;;;;;6.20;5.00;;;6.20;96.80;;;;;;9174199;19;20015;-74
2022/01/15 16:54:12;;;;;;;5.72;4.40;;;6.10;96.80;;;;;;9174018;19;20018;-74
2022/01/15 16:57:20;;;;;;;5.50;4.30;;;6.10;96.80;;;;;;9184851;19;20015;-74